Terminal Aerodrome Forecast
Issued by NWS Spokane, WA

Home | Current Version | Previous Version | Text Only | Print | Product List | Glossary On
Versions: 1 2 3 4 5 6 7 8 9 10 11 12 13 14 15 16 17 18 19 20 21 22 23 24 25 26 27 28 29 30 31 32 33 34 35 36 37 38 39
000
FTUS46 KOTX 211450 AAB
TAFGEG
TAF AMD
KGEG 211450Z 2115/2212 16008KT P6SM SCT015 OVC070
     FM211800 15010KT 6SM -RASN BKN025 OVC035
     FM212000 14012KT 6SM -RA BR OVC025
     FM212300 15010KT 4SM -RA OVC020
     FM220300 19020G27KT P6SM -RA BKN030 OVC040
     FM220800 21032G43KT P6SM -RA OVC050=

USA.gov is the U.S. government's official web portal to all federal, state and local government web resources and services.